createdAt,value
2023-06-13T00:01:52.478Z,2.47
2023-06-13T00:04:23.139Z,5.53
2023-06-13T00:06:57.121Z,6.15
2023-06-13T00:09:26.867Z,2.67
2023-06-13T00:11:54.154Z,2.90
2023-06-13T00:14:21.658Z,3.33
2023-06-13T00:16:48.672Z,1.98
2023-06-13T00:19:15.866Z,3.28
2023-06-13T00:21:42.685Z,2.13
2023-06-13T00:24:09.541Z,1.85
2023-06-13T00:26:36.226Z,3.05
2023-06-13T00:29:03.487Z,4.95
2023-06-13T00:31:30.584Z,2.00
2023-06-13T00:33:58.024Z,3.58
2023-06-13T00:36:26.277Z,3.25
2023-06-13T00:38:53.533Z,1.90
2023-06-13T00:41:20.263Z,2.22
2023-06-13T00:43:46.869Z,2.92
2023-06-13T00:46:15.092Z,2.00
2023-06-13T00:48:43.779Z,1.85
2023-06-13T00:51:10.684Z,2.75
2023-06-13T00:53:37.368Z,3.40
2023-06-13T00:56:06.118Z,2.10
2023-06-13T00:58:32.707Z,2.28
2023-06-13T01:01:00.966Z,2.50
2023-06-13T01:03:27.686Z,1.65
2023-06-13T01:05:54.332Z,3.45
2023-06-13T01:08:23.366Z,3.85
2023-06-13T01:10:54.482Z,3.35
2023-06-13T01:13:31.185Z,1.95
2023-06-13T01:16:04.849Z,5.00
2023-06-13T01:18:34.771Z,3.10
2023-06-13T01:21:01.918Z,3.70
2023-06-13T01:23:29.394Z,2.20
2023-06-13T01:26:11.796Z,2.80
2023-06-13T01:28:38.708Z,5.18
2023-06-13T01:31:07.733Z,2.22
2023-06-13T01:33:34.942Z,2.10
2023-06-13T01:36:01.697Z,2.00
2023-06-13T01:38:28.338Z,2.17
2023-06-13T01:40:54.964Z,2.22
2023-06-13T01:43:21.636Z,3.17
2023-06-13T01:45:48.405Z,1.95
2023-06-13T01:48:20.781Z,4.75
2023-06-13T01:51:09.941Z,3.38
2023-06-13T01:53:56.800Z,2.65
2023-06-13T01:56:26.796Z,2.88
2023-06-13T01:58:56.057Z,1.88
2023-06-13T02:01:23.939Z,2.70
2023-06-13T02:03:51.023Z,2.80
2023-06-13T02:06:21.560Z,1.73
2023-06-13T02:08:48.194Z,3.45
2023-06-13T02:11:15.008Z,1.77
2023-06-13T02:13:41.621Z,2.20
2023-06-13T02:16:08.428Z,2.83
2023-06-13T02:18:35.039Z,3.20
2023-06-13T02:21:01.681Z,1.88
2023-06-13T02:23:28.237Z,4.93
2023-06-13T02:25:54.882Z,2.20
2023-06-13T02:28:21.431Z,2.47
2023-06-13T02:30:48.299Z,1.98
2023-06-13T02:33:15.577Z,1.60
2023-06-13T02:35:47.020Z,1.83
2023-06-13T02:38:13.802Z,3.17
2023-06-13T02:40:40.388Z,2.63
2023-06-13T02:43:07.301Z,3.65
2023-06-13T02:45:33.932Z,1.98
2023-06-13T02:48:01.355Z,1.88
2023-06-13T02:50:28.201Z,1.88
2023-06-13T02:52:54.845Z,2.13
2023-06-13T02:55:21.840Z,2.00
2023-06-13T02:57:48.569Z,6.90
2023-06-13T03:00:18.599Z,4.57
2023-06-13T03:02:45.254Z,2.72
2023-06-13T03:05:12.586Z,1.67
2023-06-13T03:07:44.376Z,1.50
2023-06-13T03:10:11.420Z,3.92
2023-06-13T03:12:38.341Z,2.20
2023-06-13T03:15:05.220Z,4.25
2023-06-13T03:17:31.933Z,3.88
2023-06-13T03:20:19.667Z,2.17
2023-06-13T03:22:45.180Z,2.28
2023-06-13T03:25:11.964Z,1.75
2023-06-13T03:27:38.901Z,2.83
2023-06-13T03:30:06.502Z,2.28
2023-06-13T03:32:33.920Z,4.63
2023-06-13T03:35:01.679Z,1.63
2023-06-13T03:37:28.294Z,1.92
2023-06-13T03:39:54.920Z,2.55
2023-06-13T03:42:21.562Z,3.05
2023-06-13T03:44:49.639Z,2.08
2023-06-13T03:47:16.826Z,3.85
2023-06-13T03:49:45.003Z,2.25
2023-06-13T03:52:12.639Z,2.47
2023-06-13T03:54:39.651Z,1.85
2023-06-13T03:57:08.004Z,2.30
2023-06-13T03:59:35.604Z,3.35
2023-06-13T04:02:02.385Z,4.43
2023-06-13T04:04:29.042Z,2.22
2023-06-13T04:06:56.896Z,2.00
2023-06-13T04:09:24.471Z,2.67
2023-06-13T04:11:51.122Z,7.43
2023-06-13T04:14:17.843Z,3.58
2023-06-13T04:16:45.088Z,5.78
2023-06-13T04:19:12.854Z,2.58
2023-06-13T04:21:39.561Z,5.43
2023-06-13T04:24:06.461Z,3.17
2023-06-13T04:26:33.232Z,3.95
2023-06-13T04:29:00.025Z,2.53
2023-06-13T04:31:26.579Z,3.80
2023-06-13T04:33:56.876Z,6.20
2023-06-13T04:36:25.533Z,1.85
2023-06-13T04:38:54.673Z,4.30
2023-06-13T04:41:21.372Z,1.88
2023-06-13T04:43:48.057Z,1.80
2023-06-13T04:46:19.645Z,3.47
2023-06-13T04:48:46.723Z,1.63
2023-06-13T04:51:15.284Z,3.60
2023-06-13T04:53:43.573Z,1.70
2023-06-13T04:56:10.270Z,2.28
2023-06-13T04:58:36.938Z,4.75
2023-06-13T05:01:04.086Z,2.58
2023-06-13T05:03:30.842Z,1.45
2023-06-13T05:05:57.599Z,1.70
2023-06-13T05:08:24.313Z,1.58
2023-06-13T05:10:50.960Z,3.25
2023-06-13T05:13:17.728Z,2.08
2023-06-13T05:15:46.133Z,2.38
2023-06-13T05:18:16.037Z,2.45
2023-06-13T05:20:43.363Z,2.40
2023-06-13T05:23:11.999Z,3.33
2023-06-13T05:25:38.741Z,2.97
2023-06-13T05:28:05.648Z,2.72
2023-06-13T05:30:32.402Z,2.40
2023-06-13T05:32:59.306Z,1.55
2023-06-13T05:35:26.239Z,2.78
2023-06-13T05:37:53.099Z,1.83
2023-06-13T05:40:20.196Z,1.65
2023-06-13T05:42:47.319Z,2.75
2023-06-13T05:45:14.088Z,1.98
2023-06-13T05:47:40.784Z,1.67
2023-06-13T05:50:07.597Z,2.47
2023-06-13T05:52:35.183Z,1.67
2023-06-13T05:55:02.802Z,3.47
2023-06-13T05:57:42.724Z,2.63
2023-06-13T06:00:10.814Z,2.15
2023-06-13T06:02:37.593Z,2.60
2023-06-13T06:05:04.842Z,2.35
2023-06-13T06:07:32.737Z,1.77
2023-06-13T06:09:59.442Z,3.05
2023-06-13T06:12:26.337Z,2.92
2023-06-13T06:14:53.092Z,3.40
2023-06-13T06:17:21.403Z,1.70
2023-06-13T06:19:48.718Z,2.63
2023-06-13T06:22:15.677Z,3.83
2023-06-13T06:24:45.737Z,1.95
2023-06-13T06:27:15.325Z,1.98
2023-06-13T06:29:43.540Z,1.95
2023-06-13T06:32:11.153Z,1.95
2023-06-13T06:34:38.120Z,2.33
2023-06-13T06:37:05.677Z,1.73
2023-06-13T06:39:32.295Z,1.88
2023-06-13T06:41:58.968Z,4.70
2023-06-13T06:44:39.895Z,2.80
2023-06-13T06:47:10.173Z,1.77
2023-06-13T06:49:36.896Z,1.83
2023-06-13T06:52:03.833Z,1.35
2023-06-13T06:54:31.754Z,2.00
2023-06-13T06:56:58.523Z,2.25
2023-06-13T06:59:25.192Z,2.00
2023-06-13T07:01:52.224Z,3.28
2023-06-13T07:04:19.080Z,1.67
2023-06-13T07:06:46.217Z,2.17
2023-06-13T07:09:12.938Z,3.40
2023-06-13T07:11:39.509Z,2.65
2023-06-13T07:14:06.231Z,2.25
2023-06-13T07:16:32.983Z,2.38
2023-06-13T07:18:59.620Z,1.77
2023-06-13T07:21:27.241Z,2.25
2023-06-13T07:24:06.813Z,1.98
2023-06-13T07:26:34.594Z,2.13
2023-06-13T07:29:01.297Z,2.20
2023-06-13T07:31:28.171Z,2.20
2023-06-13T07:33:55.072Z,1.92
2023-06-13T07:36:21.671Z,3.20
2023-06-13T07:38:48.360Z,2.42
2023-06-13T07:41:15.073Z,3.47
2023-06-13T07:43:41.785Z,2.15
2023-06-13T07:46:08.473Z,1.80
2023-06-13T07:48:35.163Z,2.03
2023-06-13T07:51:01.956Z,1.80
2023-06-13T07:53:28.674Z,2.97
2023-06-13T07:55:57.097Z,3.05
2023-06-13T07:58:23.971Z,1.38
2023-06-13T08:00:50.723Z,2.10
2023-06-13T08:03:17.886Z,2.13
2023-06-13T08:05:44.798Z,1.67
2023-06-13T08:08:11.419Z,2.58
2023-06-13T08:10:38.145Z,2.13
2023-06-13T08:13:04.833Z,1.88
2023-06-13T08:15:31.416Z,5.80
2023-06-13T08:17:59.187Z,2.85
2023-06-13T08:20:26.517Z,2.53
2023-06-13T08:22:53.073Z,1.65
2023-06-13T08:25:19.839Z,3.15
2023-06-13T08:27:47.458Z,2.67
2023-06-13T08:30:14.788Z,4.05
2023-06-13T08:32:43.010Z,1.92
2023-06-13T08:35:10.233Z,3.53
2023-06-13T08:37:37.292Z,2.55
2023-06-13T08:40:06.637Z,4.07
2023-06-13T08:42:33.572Z,1.90
2023-06-13T08:45:01.607Z,3.38
2023-06-13T08:50:01.717Z,2.03
2023-06-13T08:52:36.238Z,1.50
2023-06-13T08:55:14.587Z,1.52
2023-06-13T08:57:53.753Z,2.17
2023-06-13T09:00:21.197Z,1.80
2023-06-13T09:02:48.005Z,1.80
2023-06-13T09:05:16.815Z,1.65
2023-06-13T09:07:44.328Z,2.13
2023-06-13T09:10:14.320Z,1.88
2023-06-13T09:12:41.737Z,2.03
2023-06-13T09:15:08.643Z,1.70
2023-06-13T09:17:35.860Z,2.50
2023-06-13T09:20:04.658Z,3.05
2023-06-13T09:22:32.253Z,1.52
2023-06-13T09:24:59.642Z,1.95
2023-06-13T09:27:26.916Z,5.53
2023-06-13T09:29:53.675Z,1.50
2023-06-13T09:32:21.104Z,2.13
2023-06-13T09:34:50.167Z,1.88
2023-06-13T09:45:44.828Z,1.42
2023-06-13T09:48:11.434Z,2.00
2023-06-13T09:50:41.516Z,1.63
2023-06-13T09:53:11.038Z,2.30
2023-06-13T09:55:37.986Z,1.40
2023-06-13T10:00:34.741Z,2.40
2023-06-13T10:03:11.692Z,1.40
2023-06-13T10:05:44.238Z,4.10
2023-06-13T10:08:11.855Z,2.60
2023-06-13T10:10:38.555Z,1.73
2023-06-13T10:13:07.532Z,1.70
2023-06-13T10:15:52.322Z,2.40
2023-06-13T10:18:23.086Z,1.67
2023-06-13T10:20:50.260Z,1.65
2023-06-13T10:23:17.472Z,4.82
2023-06-13T10:25:46.031Z,3.30
2023-06-13T10:28:32.849Z,1.80
2023-06-13T10:31:20.469Z,2.67
2023-06-13T10:33:47.214Z,2.13
2023-06-13T10:36:26.149Z,10.48
2023-06-13T10:39:28.412Z,2.50
2023-06-13T10:42:01.058Z,1.83
2023-06-13T10:44:42.554Z,2.70
2023-06-13T10:47:09.384Z,3.35
2023-06-13T10:49:45.421Z,4.07
2023-06-13T10:52:12.990Z,2.00
2023-06-13T10:54:41.255Z,2.03
2023-06-13T10:57:08.576Z,2.20
2023-06-13T10:59:37.863Z,2.80
2023-06-13T11:02:05.166Z,5.18
2023-06-13T11:04:32.237Z,3.75
2023-06-13T11:07:17.258Z,2.53
2023-06-13T11:09:43.882Z,2.95
2023-06-13T11:12:13.543Z,2.17
2023-06-13T11:14:40.364Z,2.08
2023-06-13T11:17:07.042Z,2.17
2023-06-13T11:19:35.224Z,1.90
2023-06-13T11:22:03.757Z,1.95
2023-06-13T11:24:32.565Z,2.00
2023-06-13T11:27:01.076Z,1.90
2023-06-13T11:29:29.291Z,2.00
2023-06-13T11:31:56.085Z,1.60
2023-06-13T11:34:27.924Z,1.67
2023-06-13T11:36:57.281Z,2.50
2023-06-13T11:39:25.028Z,2.58
2023-06-13T11:41:53.053Z,1.67
2023-06-13T11:44:20.155Z,2.28
2023-06-13T11:46:48.004Z,1.90
2023-06-13T11:49:18.222Z,2.63
2023-06-13T11:51:45.671Z,3.15
2023-06-13T11:54:12.512Z,1.70
2023-06-13T11:56:51.114Z,1.77
2023-06-13T11:59:19.029Z,2.13
2023-06-13T12:01:50.241Z,3.92
2023-06-13T12:04:17.544Z,3.00
2023-06-13T12:06:44.268Z,2.40
2023-06-13T12:09:11.107Z,3.30
2023-06-13T12:11:38.074Z,1.67
2023-06-13T12:14:04.696Z,4.65
2023-06-13T12:16:36.364Z,2.22
2023-06-13T12:19:03.609Z,2.20
2023-06-13T12:21:31.993Z,2.67
2023-06-13T12:23:59.933Z,2.55
2023-06-13T12:26:27.434Z,2.28
2023-06-13T12:28:56.460Z,2.25
2023-06-13T12:31:49.525Z,2.13
2023-06-13T12:34:28.153Z,4.60
2023-06-13T12:36:58.917Z,2.85
2023-06-13T12:39:25.833Z,2.33
2023-06-13T12:41:54.320Z,2.63
2023-06-13T12:44:22.884Z,1.92
2023-06-13T12:46:51.548Z,3.63
2023-06-13T12:49:22.200Z,2.33
2023-06-13T12:51:50.276Z,7.38
2023-06-13T12:54:20.955Z,3.53
2023-06-13T12:56:57.968Z,4.43
2023-06-13T12:59:34.393Z,3.88
2023-06-13T13:02:02.142Z,2.78
2023-06-13T13:04:35.671Z,2.60
2023-06-13T13:07:03.472Z,3.67
2023-06-13T13:09:30.241Z,1.80
2023-06-13T13:11:57.325Z,2.08
2023-06-13T13:14:24.734Z,2.47
2023-06-13T13:16:52.466Z,2.20
2023-06-13T13:19:19.544Z,3.15
2023-06-13T13:21:46.762Z,3.88
2023-06-13T13:24:13.789Z,3.85
2023-06-13T13:26:41.532Z,2.35
2023-06-13T13:29:08.143Z,2.20
2023-06-13T13:31:35.072Z,4.93
2023-06-13T13:34:14.374Z,4.75
2023-06-13T13:36:48.337Z,3.67
2023-06-13T13:39:15.933Z,2.50
2023-06-13T13:41:42.672Z,2.10
2023-06-13T13:44:09.554Z,2.20
2023-06-13T13:46:36.183Z,1.75
2023-06-13T13:49:02.916Z,4.38
2023-06-13T13:51:32.473Z,2.55
2023-06-13T13:53:59.392Z,2.20
2023-06-13T13:56:26.715Z,3.78
2023-06-13T13:58:53.400Z,3.53
2023-06-13T14:01:21.781Z,3.45
2023-06-13T14:03:49.047Z,1.92
2023-06-13T14:06:16.014Z,1.90
2023-06-13T14:08:42.619Z,3.15
2023-06-13T14:11:09.278Z,1.92
2023-06-13T14:13:35.877Z,2.08
2023-06-13T14:16:02.586Z,3.00
2023-06-13T14:18:29.454Z,2.28
2023-06-13T14:20:56.293Z,2.78
2023-06-13T14:23:22.916Z,2.67
2023-06-13T14:25:50.093Z,3.88
2023-06-13T14:28:16.792Z,2.55
2023-06-13T14:30:45.343Z,4.43
2023-06-13T14:33:14.670Z,2.80
2023-06-13T14:35:41.611Z,2.15
2023-06-13T14:38:08.265Z,2.40
2023-06-13T14:40:34.876Z,2.13
2023-06-13T14:43:01.498Z,1.67
2023-06-13T14:45:28.273Z,4.60
2023-06-13T14:47:55.659Z,2.42
2023-06-13T14:50:22.732Z,2.50
2023-06-13T14:52:49.500Z,5.53
2023-06-13T14:55:16.590Z,2.58
2023-06-13T14:57:43.284Z,2.00
2023-06-13T15:00:11.790Z,1.95
2023-06-13T15:02:39.069Z,1.98
2023-06-13T15:05:06.341Z,1.77
2023-06-13T15:07:33.147Z,2.40
2023-06-13T15:10:00.212Z,2.45
2023-06-13T15:12:28.154Z,2.50
2023-06-13T15:14:55.016Z,2.95
2023-06-13T15:17:21.907Z,2.45
2023-06-13T15:19:49.058Z,1.88
2023-06-13T15:22:15.905Z,2.33
2023-06-13T15:24:42.512Z,3.17
2023-06-13T15:27:09.103Z,1.90
2023-06-13T15:29:35.768Z,1.90
2023-06-13T15:32:02.510Z,1.70
2023-06-13T15:34:30.753Z,1.80
2023-06-13T15:36:57.517Z,4.25
2023-06-13T15:39:24.774Z,1.80
2023-06-13T15:41:51.413Z,2.13
2023-06-13T15:44:18.042Z,3.05
2023-06-13T15:46:46.406Z,2.55
2023-06-13T15:49:13.453Z,1.90
2023-06-13T15:51:40.061Z,2.28
2023-06-13T15:54:06.653Z,1.90
2023-06-13T15:56:33.409Z,2.05
2023-06-13T15:59:00.606Z,2.20
2023-06-13T16:01:28.606Z,2.50
2023-06-13T16:03:55.452Z,2.78
2023-06-13T16:06:22.134Z,1.52
2023-06-13T16:08:49.789Z,2.13
2023-06-13T16:11:16.409Z,1.92
2023-06-13T16:13:43.334Z,2.38
2023-06-13T16:16:10.017Z,3.47
2023-06-13T16:18:38.478Z,3.13
2023-06-13T18:12:57.088Z,13.07
2023-06-13T18:15:23.857Z,43.72
2023-06-13T18:17:54.892Z,50.20
2023-06-13T18:20:21.959Z,26.83
2023-06-13T18:22:48.534Z,27.25
2023-06-13T18:25:15.391Z,19.98
2023-06-13T18:27:42.197Z,20.42
2023-06-13T18:30:09.934Z,15.40
2023-06-13T18:32:36.554Z,19.95
2023-06-13T18:35:03.536Z,9.40
2023-06-13T18:37:30.202Z,12.15
2023-06-13T18:39:57.161Z,9.07
2023-06-13T18:42:24.134Z,8.07
2023-06-13T18:44:51.186Z,6.05
2023-06-13T18:47:18.220Z,6.63
2023-06-13T18:49:46.319Z,8.95
2023-06-13T18:52:13.218Z,5.63
2023-06-13T18:54:39.787Z,6.57
2023-06-13T18:57:06.580Z,6.03
2023-06-13T18:59:34.656Z,6.25
2023-06-13T19:02:01.445Z,4.78
2023-06-13T19:04:30.957Z,7.35
2023-06-13T19:06:57.564Z,7.60
2023-06-13T19:09:24.159Z,4.63
2023-06-13T19:11:52.076Z,3.78
2023-06-13T19:14:18.944Z,5.60
2023-06-13T19:16:45.585Z,4.03
2023-06-13T19:19:17.320Z,3.80
2023-06-13T19:21:51.499Z,3.53
2023-06-13T19:24:18.307Z,4.38
2023-06-13T19:26:45.057Z,4.53
2023-06-13T19:29:12.138Z,4.18
2023-06-13T19:31:39.259Z,4.68
2023-06-13T19:34:06.526Z,4.25
2023-06-13T19:36:33.478Z,5.88
2023-06-13T19:39:00.176Z,5.30
2023-06-13T19:41:27.381Z,4.40
2023-06-13T19:43:54.007Z,5.28
2023-06-13T19:46:20.644Z,4.93
2023-06-13T19:48:47.904Z,3.85
2023-06-13T19:51:19.001Z,4.63
2023-06-13T19:53:46.780Z,3.90
2023-06-13T19:56:13.668Z,5.60
2023-06-13T19:58:41.211Z,3.25
2023-06-13T20:01:08.054Z,4.53
2023-06-13T20:03:34.781Z,3.95
2023-06-13T20:06:01.513Z,4.80
2023-06-13T20:08:28.173Z,4.00
2023-06-13T20:10:54.941Z,4.50
2023-06-13T20:13:21.692Z,4.13
2023-06-13T20:15:53.603Z,4.15
2023-06-13T20:18:22.743Z,4.47
2023-06-13T20:20:49.323Z,2.42
2023-06-13T20:23:15.890Z,4.70
2023-06-13T20:25:42.524Z,2.88
2023-06-13T20:28:10.684Z,3.35
2023-06-13T20:30:37.366Z,4.43
2023-06-13T20:33:04.013Z,4.95
2023-06-13T20:35:32.114Z,7.53
2023-06-13T20:37:58.745Z,2.90
2023-06-13T20:40:25.661Z,3.50
2023-06-13T20:42:52.706Z,5.65
2023-06-13T20:45:19.630Z,2.58
2023-06-13T20:47:49.376Z,3.63
2023-06-13T20:50:17.496Z,5.03
2023-06-13T20:52:44.018Z,2.80
2023-06-13T20:55:11.580Z,2.55
2023-06-13T20:57:38.749Z,3.63
2023-06-13T21:00:23.235Z,5.88
2023-06-13T21:02:59.690Z,6.43
2023-06-13T21:05:27.549Z,5.20
2023-06-13T21:07:54.400Z,2.88
2023-06-13T21:10:21.630Z,3.38
2023-06-13T21:12:48.719Z,2.28
2023-06-13T21:15:16.838Z,3.25
2023-06-13T21:17:46.152Z,3.08
2023-06-13T21:20:13.561Z,4.25
2023-06-13T21:22:40.501Z,3.10
2023-06-13T21:25:08.639Z,5.80
2023-06-13T21:27:37.801Z,5.43
2023-06-13T21:30:07.991Z,4.03
2023-06-13T21:32:34.661Z,3.92
2023-06-13T21:35:01.711Z,5.47
2023-06-13T21:37:30.212Z,6.72
2023-06-13T21:39:56.807Z,3.05
2023-06-13T21:42:23.345Z,2.75
2023-06-13T21:44:50.858Z,3.85
2023-06-13T21:47:17.692Z,4.65
2023-06-13T21:49:44.549Z,3.25
2023-06-13T21:52:11.143Z,4.00
2023-06-13T21:54:37.819Z,3.80
2023-06-13T21:57:04.503Z,3.17
2023-06-13T21:59:31.083Z,5.35
2023-06-13T22:01:57.740Z,5.22
2023-06-13T22:04:24.201Z,4.40
2023-06-13T22:06:50.905Z,3.15
2023-06-13T22:09:17.904Z,2.80
2023-06-13T22:11:47.361Z,4.68
2023-06-13T22:14:15.156Z,3.67
2023-06-13T22:16:42.377Z,4.10
2023-06-13T22:19:09.570Z,2.63
2023-06-13T22:21:41.568Z,3.30
2023-06-13T22:24:08.965Z,7.07
2023-06-13T22:26:38.396Z,2.60
2023-06-13T22:29:06.888Z,5.72
2023-06-13T22:31:33.859Z,2.30
2023-06-13T22:34:00.640Z,2.78
2023-06-13T22:36:29.325Z,2.75
2023-06-13T22:38:56.592Z,2.90
2023-06-13T22:41:23.516Z,2.53
2023-06-13T22:43:50.155Z,2.53
2023-06-13T22:46:17.247Z,3.92
2023-06-13T22:48:46.322Z,4.60
2023-06-13T22:51:13.360Z,2.17
2023-06-13T22:53:42.858Z,4.00
2023-06-13T22:56:09.925Z,3.72
2023-06-13T22:58:36.726Z,3.42
2023-06-13T23:01:04.110Z,4.22
2023-06-13T23:03:31.495Z,3.08
2023-06-13T23:05:59.535Z,3.80
2023-06-13T23:08:26.763Z,2.78
2023-06-13T23:10:55.786Z,3.28
2023-06-13T23:13:23.092Z,2.95
2023-06-13T23:15:50.495Z,3.42
2023-06-13T23:18:18.012Z,3.55
2023-06-13T23:20:44.994Z,5.32
2023-06-13T23:23:11.761Z,2.50
2023-06-13T23:25:38.279Z,3.75
2023-06-13T23:28:05.004Z,2.88
2023-06-13T23:30:31.565Z,3.10
2023-06-13T23:32:59.062Z,2.95
2023-06-13T23:35:25.963Z,3.55
2023-06-13T23:37:52.633Z,3.17
2023-06-13T23:40:20.286Z,4.30
2023-06-13T23:42:47.908Z,3.20
2023-06-13T23:45:14.606Z,2.65
2023-06-13T23:47:41.983Z,1.90
2023-06-13T23:50:09.248Z,3.33
2023-06-13T23:52:36.321Z,3.40
2023-06-13T23:55:03.133Z,3.08
2023-06-13T23:57:30.034Z,5.70
2023-06-13T23:59:56.991Z,2.53
